sensor_id;sensor_type;location;lat;lon;timestamp;pressure;altitude;pressure_sealevel;temperature;humidity
63700;BME280;49845;47.130;142.766;2024-01-15T00:02:27;99199.84;;;-14.63;98.67
63700;BME280;49845;47.130;142.766;2024-01-15T00:04:57;99171.69;;;-14.59;99.12
63700;BME280;49845;47.130;142.766;2024-01-15T00:07:28;99166.84;;;-14.56;99.28
63700;BME280;49845;47.130;142.766;2024-01-15T00:10:00;99183.63;;;-14.55;98.55
63700;BME280;49845;47.130;142.766;2024-01-15T00:12:30;99200.25;;;-14.57;98.28
63700;BME280;49845;47.130;142.766;2024-01-15T00:15:01;99208.53;;;-14.58;97.83
63700;BME280;49845;47.130;142.766;2024-01-15T00:17:31;99198.88;;;-14.52;98.36
63700;BME280;49845;47.130;142.766;2024-01-15T00:20:02;99201.69;;;-14.47;98.31
63700;BME280;49845;47.130;142.766;2024-01-15T00:22:33;99216.72;;;-14.47;97.97
63700;BME280;49845;47.130;142.766;2024-01-15T00:25:06;99200.59;;;-14.51;97.40
63700;BME280;49845;47.130;142.766;2024-01-15T00:27:36;99198.09;;;-14.51;97.76
63700;BME280;49845;47.130;142.766;2024-01-15T00:30:07;99195.44;;;-14.54;97.59
63700;BME280;49845;47.130;142.766;2024-01-15T00:32:38;99217.41;;;-14.50;97.33
63700;BME280;49845;47.130;142.766;2024-01-15T00:35:09;99223.00;;;-14.41;97.52
63700;BME280;49845;47.130;142.766;2024-01-15T00:37:40;99221.28;;;-14.42;96.94
63700;BME280;49845;47.130;142.766;2024-01-15T00:40:12;99204.28;;;-14.46;96.00
63700;BME280;49845;47.130;142.766;2024-01-15T00:42:42;99205.81;;;-14.48;95.86
63700;BME280;49845;47.130;142.766;2024-01-15T00:45:13;99232.66;;;-14.47;96.59
63700;BME280;49845;47.130;142.766;2024-01-15T00:47:43;99212.59;;;-14.47;96.34
63700;BME280;49845;47.130;142.766;2024-01-15T00:50:14;99224.34;;;-14.46;95.93
63700;BME280;49845;47.130;142.766;2024-01-15T00:52:45;99157.19;;;-14.50;95.12
63700;BME280;49845;47.130;142.766;2024-01-15T00:55:17;99219.44;;;-14.44;95.71
63700;BME280;49845;47.130;142.766;2024-01-15T00:57:47;99214.72;;;-14.40;95.59
63700;BME280;49845;47.130;142.766;2024-01-15T01:00:18;99197.91;;;-14.41;94.96
63700;BME280;49845;47.130;142.766;2024-01-15T01:02:49;99211.44;;;-14.39;95.95
63700;BME280;49845;47.130;142.766;2024-01-15T01:05:19;99217.22;;;-14.40;95.13
63700;BME280;49845;47.130;142.766;2024-01-15T01:07:50;99213.38;;;-14.35;95.30
63700;BME280;49845;47.130;142.766;2024-01-15T01:10:22;99206.78;;;-14.32;94.17
63700;BME280;49845;47.130;142.766;2024-01-15T01:12:53;99250.22;;;-14.34;93.95
63700;BME280;49845;47.130;142.766;2024-01-15T01:15:23;99223.59;;;-14.31;94.54
63700;BME280;49845;47.130;142.766;2024-01-15T01:17:54;99215.28;;;-14.30;94.45
63700;BME280;49845;47.130;142.766;2024-01-15T01:20:31;99220.53;;;-14.27;94.14
63700;BME280;49845;47.130;142.766;2024-01-15T01:23:01;99241.53;;;-14.39;93.63
63700;BME280;49845;47.130;142.766;2024-01-15T01:25:33;99220.31;;;-14.30;94.30
63700;BME280;49845;47.130;142.766;2024-01-15T01:28:04;99219.16;;;-14.36;93.04
63700;BME280;49845;47.130;142.766;2024-01-15T01:30:35;99231.50;;;-14.39;92.39
63700;BME280;49845;47.130;142.766;2024-01-15T01:33:05;99221.94;;;-14.44;92.80
63700;BME280;49845;47.130;142.766;2024-01-15T01:35:36;99217.97;;;-14.41;93.24
63700;BME280;49845;47.130;142.766;2024-01-15T01:38:06;99213.38;;;-14.35;93.42
63700;BME280;49845;47.130;142.766;2024-01-15T01:40:38;99216.63;;;-14.36;93.57
63700;BME280;49845;47.130;142.766;2024-01-15T01:43:09;99220.13;;;-14.34;93.56
63700;BME280;49845;47.130;142.766;2024-01-15T01:45:40;99213.56;;;-14.31;92.93
63700;BME280;49845;47.130;142.766;2024-01-15T01:48:10;99208.13;;;-14.38;93.54
63700;BME280;49845;47.130;142.766;2024-01-15T01:50:41;99228.44;;;-14.35;93.42
63700;BME280;49845;47.130;142.766;2024-01-15T01:53:12;99229.38;;;-14.32;93.20
63700;BME280;49845;47.130;142.766;2024-01-15T01:55:45;99214.63;;;-14.28;93.68
63700;BME280;49845;47.130;142.766;2024-01-15T01:58:16;99214.59;;;-14.41;91.91
63700;BME280;49845;47.130;142.766;2024-01-15T02:00:47;99242.88;;;-14.44;92.68
63700;BME280;49845;47.130;142.766;2024-01-15T02:03:18;99197.34;;;-14.50;92.22
63700;BME280;49845;47.130;142.766;2024-01-15T02:05:49;99206.19;;;-14.55;92.55
63700;BME280;49845;47.130;142.766;2024-01-15T02:08:19;99203.41;;;-14.46;93.58
63700;BME280;49845;47.130;142.766;2024-01-15T02:10:51;99226.47;;;-14.39;94.04
63700;BME280;49845;47.130;142.766;2024-01-15T02:13:22;99210.56;;;-14.39;93.24
63700;BME280;49845;47.130;142.766;2024-01-15T02:15:52;99205.81;;;-14.48;93.11
63700;BME280;49845;47.130;142.766;2024-01-15T02:18:23;99253.72;;;-14.31;92.68
63700;BME280;49845;47.130;142.766;2024-01-15T02:20:53;99213.75;;;-14.28;91.43
63700;BME280;49845;47.130;142.766;2024-01-15T02:23:26;99205.66;;;-14.24;91.97
63700;BME280;49845;47.130;142.766;2024-01-15T02:25:56;99229.59;;;-14.16;91.40
63700;BME280;49845;47.130;142.766;2024-01-15T02:28:26;99208.16;;;-14.11;91.71
63700;BME280;49845;47.130;142.766;2024-01-15T02:30:57;99219.97;;;-14.10;91.77
63700;BME280;49845;47.130;142.766;2024-01-15T02:33:28;99215.31;;;-14.04;91.53
63700;BME280;49845;47.130;142.766;2024-01-15T02:35:58;99207.97;;;-14.14;90.96
63700;BME280;49845;47.130;142.766;2024-01-15T02:38:30;99236.56;;;-14.12;90.71
63700;BME280;49845;47.130;142.766;2024-01-15T02:41:01;99216.50;;;-14.12;91.05
63700;BME280;49845;47.130;142.766;2024-01-15T02:43:31;99228.94;;;-14.14;90.16
63700;BME280;49845;47.130;142.766;2024-01-15T02:46:02;99211.06;;;-14.18;90.17
63700;BME280;49845;47.130;142.766;2024-01-15T02:48:32;99227.09;;;-14.16;90.58
63700;BME280;49845;47.130;142.766;2024-01-15T02:51:03;99240.25;;;-14.07;90.23
63700;BME280;49845;47.130;142.766;2024-01-15T02:53:36;99242.25;;;-14.01;89.93
63700;BME280;49845;47.130;142.766;2024-01-15T02:56:07;99223.63;;;-14.05;89.90
63700;BME280;49845;47.130;142.766;2024-01-15T02:58:38;99237.72;;;-13.94;89.62
63700;BME280;49845;47.130;142.766;2024-01-15T03:01:08;99259.16;;;-13.99;89.72
63700;BME280;49845;47.130;142.766;2024-01-15T03:03:40;99270.72;;;-14.14;89.79
63700;BME280;49845;47.130;142.766;2024-01-15T03:06:10;99267.59;;;-14.37;90.05
63700;BME280;49845;47.130;142.766;2024-01-15T03:08:42;99246.34;;;-14.42;90.51
63700;BME280;49845;47.130;142.766;2024-01-15T03:11:13;99252.13;;;-14.56;90.59
63700;BME280;49845;47.130;142.766;2024-01-15T03:13:43;99247.78;;;-14.59;91.05
63700;BME280;49845;47.130;142.766;2024-01-15T03:16:14;99263.69;;;-14.58;91.56
63700;BME280;49845;47.130;142.766;2024-01-15T03:18:44;99266.31;;;-14.57;91.54
63700;BME280;49845;47.130;142.766;2024-01-15T03:21:15;99282.91;;;-14.59;91.17
63700;BME280;49845;47.130;142.766;2024-01-15T03:23:47;99288.78;;;-14.58;91.12
63700;BME280;49845;47.130;142.766;2024-01-15T03:26:17;99294.38;;;-14.62;91.40
63700;BME280;49845;47.130;142.766;2024-01-15T03:28:48;99293.22;;;-14.67;91.20
63700;BME280;49845;47.130;142.766;2024-01-15T03:31:18;99292.56;;;-14.76;91.16
63700;BME280;49845;47.130;142.766;2024-01-15T03:33:49;99288.22;;;-14.79;91.31
63700;BME280;49845;47.130;142.766;2024-01-15T03:36:19;99298.72;;;-14.85;91.71
63700;BME280;49845;47.130;142.766;2024-01-15T03:38:52;99314.81;;;-14.81;92.10
63700;BME280;49845;47.130;142.766;2024-01-15T03:41:22;99321.63;;;-14.92;91.68
63700;BME280;49845;47.130;142.766;2024-01-15T03:43:52;99317.03;;;-14.97;92.12
63700;BME280;49845;47.130;142.766;2024-01-15T03:46:23;99315.78;;;-15.04;91.62
63700;BME280;49845;47.130;142.766;2024-01-15T03:48:53;99328.72;;;-14.98;92.49
63700;BME280;49845;47.130;142.766;2024-01-15T03:51:24;99334.50;;;-14.99;92.34
63700;BME280;49845;47.130;142.766;2024-01-15T03:53:56;99343.34;;;-15.04;92.03
63700;BME280;49845;47.130;142.766;2024-01-15T03:56:26;99344.09;;;-15.05;92.05
63700;BME280;49845;47.130;142.766;2024-01-15T03:58:57;99355.66;;;-15.07;92.10
63700;BME280;49845;47.130;142.766;2024-01-15T04:01:27;99357.41;;;-15.06;91.94
63700;BME280;49845;47.130;142.766;2024-01-15T04:03:58;99351.72;;;-15.15;92.15
63700;BME280;49845;47.130;142.766;2024-01-15T04:06:28;99373.75;;;-15.11;91.79
63700;BME280;49845;47.130;142.766;2024-01-15T04:09:01;99341.50;;;-15.18;91.35
63700;BME280;49845;47.130;142.766;2024-01-15T04:11:31;99365.44;;;-15.10;91.61
63700;BME280;49845;47.130;142.766;2024-01-15T04:14:02;99385.28;;;-15.13;91.17
63700;BME280;49845;47.130;142.766;2024-01-15T04:16:32;99368.75;;;-15.11;91.34
63700;BME280;49845;47.130;142.766;2024-01-15T04:19:05;99385.28;;;-15.13;91.22
63700;BME280;49845;47.130;142.766;2024-01-15T04:21:36;99393.91;;;-15.22;91.15
63700;BME280;49845;47.130;142.766;2024-01-15T04:24:08;99409.81;;;-15.09;90.90
63700;BME280;49845;47.130;142.766;2024-01-15T04:26:39;99417.09;;;-15.12;91.21
63700;BME280;49845;47.130;142.766;2024-01-15T04:29:09;99415.81;;;-15.07;90.44
63700;BME280;49845;47.130;142.766;2024-01-15T04:31:40;99435.63;;;-15.10;90.54
63700;BME280;49845;47.130;142.766;2024-01-15T04:34:11;99435.41;;;-15.13;90.59
63700;BME280;49845;47.130;142.766;2024-01-15T04:36:41;99438.25;;;-15.21;89.72
63700;BME280;49845;47.130;142.766;2024-01-15T04:39:13;99449.78;;;-15.23;90.08
63700;BME280;49845;47.130;142.766;2024-01-15T04:41:44;99455.03;;;-15.19;90.53
63700;BME280;49845;47.130;142.766;2024-01-15T04:44:14;99448.25;;;-15.21;90.57
63700;BME280;49845;47.130;142.766;2024-01-15T04:46:44;99466.78;;;-15.18;90.22
63700;BME280;49845;47.130;142.766;2024-01-15T04:49:15;99484.66;;;-15.26;89.50
63700;BME280;49845;47.130;142.766;2024-01-15T04:51:46;99476.38;;;-15.25;90.06
63700;BME280;49845;47.130;142.766;2024-01-15T04:54:18;99469.63;;;-15.26;89.88
63700;BME280;49845;47.130;142.766;2024-01-15T04:56:48;99471.59;;;-15.22;89.69
63700;BME280;49845;47.130;142.766;2024-01-15T04:59:19;99493.16;;;-15.24;90.00
63700;BME280;49845;47.130;142.766;2024-01-15T05:01:49;99499.25;;;-15.32;89.32
63700;BME280;49845;47.130;142.766;2024-01-15T05:04:20;99497.28;;;-15.36;89.86
63700;BME280;49845;47.130;142.766;2024-01-15T05:06:50;99527.53;;;-15.33;88.92
63700;BME280;49845;47.130;142.766;2024-01-15T05:09:22;99521.88;;;-15.42;88.59
63700;BME280;49845;47.130;142.766;2024-01-15T05:11:56;99534.50;;;-15.40;89.28
63700;BME280;49845;47.130;142.766;2024-01-15T05:14:26;99490.94;;;-15.43;88.81
63700;BME280;49845;47.130;142.766;2024-01-15T05:16:56;99525.91;;;-15.44;89.05
63700;BME280;49845;47.130;142.766;2024-01-15T05:19:27;99542.34;;;-15.36;89.22
63700;BME280;49845;47.130;142.766;2024-01-15T05:21:57;99554.53;;;-15.40;88.94
63700;BME280;49845;47.130;142.766;2024-01-15T05:24:30;99562.41;;;-15.36;88.85
63700;BME280;49845;47.130;142.766;2024-01-15T05:27:00;99553.47;;;-15.44;89.21
63700;BME280;49845;47.130;142.766;2024-01-15T05:29:30;99555.19;;;-15.43;88.98
63700;BME280;49845;47.130;142.766;2024-01-15T05:32:01;99570.69;;;-15.37;88.88
63700;BME280;49845;47.130;142.766;2024-01-15T05:34:31;99577.44;;;-15.36;89.17
63700;BME280;49845;47.130;142.766;2024-01-15T05:37:02;99585.03;;;-15.46;88.49
63700;BME280;49845;47.130;142.766;2024-01-15T05:39:34;99580.72;;;-15.37;88.69
63700;BME280;49845;47.130;142.766;2024-01-15T05:42:05;99591.81;;;-15.33;88.48
63700;BME280;49845;47.130;142.766;2024-01-15T05:44:36;99586.31;;;-15.51;88.09
63700;BME280;49845;47.130;142.766;2024-01-15T05:47:07;99604.00;;;-15.38;88.37
63700;BME280;49845;47.130;142.766;2024-01-15T05:49:38;99549.00;;;-15.82;88.26
63700;BME280;49845;47.130;142.766;2024-01-15T05:52:09;99615.31;;;-15.43;88.64
63700;BME280;49845;47.130;142.766;2024-01-15T05:54:41;99627.97;;;-15.41;88.46
63700;BME280;49845;47.130;142.766;2024-01-15T05:57:11;99629.03;;;-15.38;88.59
63700;BME280;49845;47.130;142.766;2024-01-15T05:59:42;99640.34;;;-15.43;88.60
63700;BME280;49845;47.130;142.766;2024-01-15T06:02:13;99640.34;;;-15.43;88.70
63700;BME280;49845;47.130;142.766;2024-01-15T06:04:43;99637.09;;;-15.42;88.60
63700;BME280;49845;47.130;142.766;2024-01-15T06:07:14;99640.34;;;-15.43;88.71
63700;BME280;49845;47.130;142.766;2024-01-15T06:09:46;99619.38;;;-15.55;88.71
63700;BME280;49845;47.130;142.766;2024-01-15T06:12:17;99644.50;;;-15.44;88.30
63700;BME280;49845;47.130;142.766;2024-01-15T06:14:47;99643.16;;;-15.50;86.86
63700;BME280;49845;47.130;142.766;2024-01-15T06:17:18;99648.16;;;-15.50;86.56
63700;BME280;49845;47.130;142.766;2024-01-15T06:19:48;99649.78;;;-15.51;85.70
63700;BME280;49845;47.130;142.766;2024-01-15T06:22:19;99652.94;;;-15.53;85.18
63700;BME280;49845;47.130;142.766;2024-01-15T06:24:51;99661.44;;;-15.51;85.26
63700;BME280;49845;47.130;142.766;2024-01-15T06:27:21;99663.19;;;-15.50;85.55
63700;BME280;49845;47.130;142.766;2024-01-15T06:29:52;99654.66;;;-15.52;85.95
63700;BME280;49845;47.130;142.766;2024-01-15T06:32:24;99654.44;;;-15.55;85.72
63700;BME280;49845;47.130;142.766;2024-01-15T06:34:54;99672.63;;;-15.58;85.75
63700;BME280;49845;47.130;142.766;2024-01-15T06:37:25;99666.28;;;-15.65;85.41
63700;BME280;49845;47.130;142.766;2024-01-15T06:39:57;99683.19;;;-15.62;85.59
63700;BME280;49845;47.130;142.766;2024-01-15T06:42:27;99670.28;;;-15.67;85.21
63700;BME280;49845;47.130;142.766;2024-01-15T06:44:58;99686.41;;;-15.63;85.11
63700;BME280;49845;47.130;142.766;2024-01-15T06:47:28;99683.56;;;-15.68;84.58
63700;BME280;49845;47.130;142.766;2024-01-15T06:50:00;99691.84;;;-15.69;84.40
63700;BME280;49845;47.130;142.766;2024-01-15T06:52:31;99694.34;;;-15.69;84.48
63700;BME280;49845;47.130;142.766;2024-01-15T06:55:03;99688.13;;;-15.74;84.11
63700;BME280;49845;47.130;142.766;2024-01-15T06:57:34;99695.50;;;-15.75;84.00
63700;BME280;49845;47.130;142.766;2024-01-15T07:00:06;99693.78;;;-15.76;84.07
63700;BME280;49845;47.130;142.766;2024-01-15T07:02:37;99701.78;;;-15.80;83.72
63700;BME280;49845;47.130;142.766;2024-01-15T07:05:08;99692.19;;;-15.86;83.21
63700;BME280;49845;47.130;142.766;2024-01-15T07:07:39;99704.19;;;-15.82;83.12
63700;BME280;49845;47.130;142.766;2024-01-15T07:10:11;99714.94;;;-15.83;82.35
63700;BME280;49845;47.130;142.766;2024-01-15T07:12:42;99724.47;;;-15.79;81.74
63700;BME280;49845;47.130;142.766;2024-01-15T07:15:13;99717.69;;;-15.80;81.91
63700;BME280;49845;47.130;142.766;2024-01-15T07:17:44;99737.72;;;-15.80;81.76
63700;BME280;49845;47.130;142.766;2024-01-15T07:20:14;99735.97;;;-15.81;81.65
63700;BME280;49845;47.130;142.766;2024-01-15T07:22:47;99736.97;;;-15.79;81.70
63700;BME280;49845;47.130;142.766;2024-01-15T07:25:19;99735.09;;;-15.81;81.14
63700;BME280;49845;47.130;142.766;2024-01-15T07:27:50;99736.22;;;-15.78;81.19
63700;BME280;49845;47.130;142.766;2024-01-15T07:30:22;99748.00;;;-15.77;80.87
63700;BME280;49845;47.130;142.766;2024-01-15T07:32:52;99751.47;;;-15.75;80.52
63700;BME280;49845;47.130;142.766;2024-01-15T07:35:23;99751.47;;;-15.75;80.48
63700;BME280;49845;47.130;142.766;2024-01-15T07:37:53;99764.97;;;-15.73;80.18
63700;BME280;49845;47.130;142.766;2024-01-15T07:40:26;99765.63;;;-15.75;79.79
63700;BME280;49845;47.130;142.766;2024-01-15T07:42:56;99768.03;;;-15.77;79.77
63700;BME280;49845;47.130;142.766;2024-01-15T07:45:26;99783.91;;;-15.76;79.82
63700;BME280;49845;47.130;142.766;2024-01-15T07:47:57;99781.50;;;-15.75;79.52
63700;BME280;49845;47.130;142.766;2024-01-15T07:50:27;99783.28;;;-15.74;79.59
63700;BME280;49845;47.130;142.766;2024-01-15T07:52:58;99786.50;;;-15.75;79.37
63700;BME280;49845;47.130;142.766;2024-01-15T07:55:30;99781.50;;;-15.75;79.18
63700;BME280;49845;47.130;142.766;2024-01-15T07:58:00;99788.03;;;-15.77;79.22
63700;BME280;49845;47.130;142.766;2024-01-15T08:00:42;99789.78;;;-15.76;79.32
63700;BME280;49845;47.130;142.766;2024-01-15T08:03:13;99792.16;;;-15.77;79.49
63700;BME280;49845;47.130;142.766;2024-01-15T08:05:43;99791.03;;;-15.81;79.09
63700;BME280;49845;47.130;142.766;2024-01-15T08:08:13;99797.06;;;-15.79;78.95
63700;BME280;49845;47.130;142.766;2024-01-15T08:10:45;99798.56;;;-15.81;78.90
63700;BME280;49845;47.130;142.766;2024-01-15T08:13:15;99805.19;;;-15.81;79.02
63700;BME280;49845;47.130;142.766;2024-01-15T08:15:46;99806.06;;;-15.81;78.75
63700;BME280;49845;47.130;142.766;2024-01-15T08:18:16;99806.06;;;-15.81;78.55
63700;BME280;49845;47.130;142.766;2024-01-15T08:20:47;99811.06;;;-15.81;78.61
63700;BME280;49845;47.130;142.766;2024-01-15T08:23:19;99812.09;;;-15.79;78.54
63700;BME280;49845;47.130;142.766;2024-01-15T08:25:51;99812.09;;;-15.79;78.55
63700;BME280;49845;47.130;142.766;2024-01-15T08:28:22;99809.34;;;-15.82;78.48
63700;BME280;49845;47.130;142.766;2024-01-15T08:30:52;99811.06;;;-15.81;78.73
63700;BME280;49845;47.130;142.766;2024-01-15T08:33:22;99820.22;;;-15.81;78.42
63700;BME280;49845;47.130;142.766;2024-01-15T08:35:53;99819.34;;;-15.82;78.71
63700;BME280;49845;47.130;142.766;2024-01-15T08:38:23;99809.97;;;-15.84;78.88
63700;BME280;49845;47.130;142.766;2024-01-15T08:40:56;99820.84;;;-15.84;78.82
63700;BME280;49845;47.130;142.766;2024-01-15T08:43:28;99819.09;;;-15.85;78.87
63700;BME280;49845;47.130;142.766;2024-01-15T08:45:59;99821.59;;;-15.85;78.58
63700;BME280;49845;47.130;142.766;2024-01-15T08:48:30;99825.34;;;-15.90;78.56
63700;BME280;49845;47.130;142.766;2024-01-15T08:51:01;99826.25;;;-15.90;78.77
63700;BME280;49845;47.130;142.766;2024-01-15T08:53:31;99823.63;;;-15.91;78.40
63700;BME280;49845;47.130;142.766;2024-01-15T08:56:03;99832.47;;;-15.95;78.61
63700;BME280;49845;47.130;142.766;2024-01-15T08:58:34;99837.50;;;-15.95;78.82
63700;BME280;49845;47.130;142.766;2024-01-15T09:01:05;99838.38;;;-15.94;78.78
63700;BME280;49845;47.130;142.766;2024-01-15T09:03:35;99838.13;;;-15.97;78.73
63700;BME280;49845;47.130;142.766;2024-01-15T09:06:06;99838.13;;;-15.97;78.87
63700;BME280;49845;47.130;142.766;2024-01-15T09:08:37;99834.66;;;-15.99;79.10
63700;BME280;49845;47.130;142.766;2024-01-15T09:11:10;99843.13;;;-15.97;79.08
63700;BME280;49845;47.130;142.766;2024-01-15T09:13:40;99839.66;;;-15.99;79.04
63700;BME280;49845;47.130;142.766;2024-01-15T09:16:11;99853.91;;;-15.98;79.06
63700;BME280;49845;47.130;142.766;2024-01-15T09:18:41;99845.28;;;-16.02;78.96
63700;BME280;49845;47.130;142.766;2024-01-15T09:21:12;99856.88;;;-16.02;79.12
63700;BME280;49845;47.130;142.766;2024-01-15T09:23:43;99851.78;;;-16.04;79.18
63700;BME280;49845;47.130;142.766;2024-01-15T09:26:15;99851.78;;;-16.04;79.33
63700;BME280;49845;47.130;142.766;2024-01-15T09:28:45;99849.38;;;-16.02;79.50
63700;BME280;49845;47.130;142.766;2024-01-15T09:31:16;99851.16;;;-16.01;79.64
63700;BME280;49845;47.130;142.766;2024-01-15T09:33:48;99859.66;;;-15.99;79.51
63700;BME280;49845;47.130;142.766;2024-01-15T09:36:20;99871.19;;;-16.01;79.74
63700;BME280;49845;47.130;142.766;2024-01-15T09:38:51;99866.91;;;-16.02;79.75
63700;BME280;49845;47.130;142.766;2024-01-15T09:41:23;99876.19;;;-16.01;79.85
63700;BME280;49845;47.130;142.766;2024-01-15T09:43:54;99869.41;;;-16.02;79.82
63700;BME280;49845;47.130;142.766;2024-01-15T09:46:24;99873.69;;;-16.01;79.72
63700;BME280;49845;47.130;142.766;2024-01-15T09:48:55;99887.06;;;-16.01;79.96
63700;BME280;49845;47.130;142.766;2024-01-15T09:51:26;99880.31;;;-16.02;80.02
63700;BME280;49845;47.130;142.766;2024-01-15T09:53:57;99895.97;;;-16.04;80.06
63700;BME280;49845;47.130;142.766;2024-01-15T09:56:30;99780.59;;;-16.69;79.75
63700;BME280;49845;47.130;142.766;2024-01-15T09:59:01;99897.69;;;-16.03;79.93
63700;BME280;49845;47.130;142.766;2024-01-15T10:01:33;99900.69;;;-16.08;79.84
63700;BME280;49845;47.130;142.766;2024-01-15T10:04:04;99899.97;;;-16.06;79.75
63700;BME280;49845;47.130;142.766;2024-01-15T10:06:35;99911.47;;;-16.09;79.86
63700;BME280;49845;47.130;142.766;2024-01-15T10:09:08;99907.22;;;-16.10;79.74
63700;BME280;49845;47.130;142.766;2024-01-15T10:11:41;99908.97;;;-16.09;79.82
63700;BME280;49845;47.130;142.766;2024-01-15T10:14:12;99915.69;;;-16.08;79.89
63700;BME280;49845;47.130;142.766;2024-01-15T10:16:43;99920.47;;;-16.11;79.66
63700;BME280;49845;47.130;142.766;2024-01-15T10:19:16;99917.22;;;-16.10;79.71
63700;BME280;49845;47.130;142.766;2024-01-15T10:21:47;99919.59;;;-16.11;79.91
63700;BME280;49845;47.130;142.766;2024-01-15T10:24:18;99924.47;;;-16.13;79.67
63700;BME280;49845;47.130;142.766;2024-01-15T10:26:50;99919.97;;;-16.17;79.69
63700;BME280;49845;47.130;142.766;2024-01-15T10:29:20;99925.22;;;-16.14;79.95
63700;BME280;49845;47.130;142.766;2024-01-15T10:31:51;99926.97;;;-16.13;79.57
63700;BME280;49845;47.130;142.766;2024-01-15T10:34:22;99936.97;;;-16.13;79.56
63700;BME280;49845;47.130;142.766;2024-01-15T10:36:52;99931.97;;;-16.13;79.44
63700;BME280;49845;47.130;142.766;2024-01-15T10:39:24;99919.19;;;-16.26;79.76
63700;BME280;49845;47.130;142.766;2024-01-15T10:41:56;99936.72;;;-16.16;79.50
63700;BME280;49845;47.130;142.766;2024-01-15T10:44:27;99941.72;;;-16.16;79.49
63700;BME280;49845;47.130;142.766;2024-01-15T10:46:58;99951.47;;;-16.19;79.62
63700;BME280;49845;47.130;142.766;2024-01-15T10:49:29;99947.97;;;-16.21;79.42
63700;BME280;49845;47.130;142.766;2024-01-15T10:52:01;99939.34;;;-16.24;79.41
63700;BME280;49845;47.130;142.766;2024-01-15T10:54:32;99942.47;;;-16.27;79.32
63700;BME280;49845;47.130;142.766;2024-01-15T10:57:06;99947.47;;;-16.27;79.38
63700;BME280;49845;47.130;142.766;2024-01-15T10:59:37;99953.97;;;-16.29;79.14
63700;BME280;49845;47.130;142.766;2024-01-15T11:02:08;99954.31;;;-16.35;79.23
63700;BME280;49845;47.130;142.766;2024-01-15T11:04:39;99961.09;;;-16.34;79.15
63700;BME280;49845;47.130;142.766;2024-01-15T11:07:11;99968.72;;;-16.32;79.29
63700;BME280;49845;47.130;142.766;2024-01-15T11:09:41;99973.72;;;-16.32;79.21
63700;BME280;49845;47.130;142.766;2024-01-15T11:12:14;99976.09;;;-16.34;79.08
63700;BME280;49845;47.130;142.766;2024-01-15T11:14:46;99976.72;;;-16.36;79.20
63700;BME280;49845;47.130;142.766;2024-01-15T11:17:17;99978.44;;;-16.35;79.32
63700;BME280;49845;47.130;142.766;2024-01-15T11:19:49;99970.66;;;-16.48;79.29
63700;BME280;49845;47.130;142.766;2024-01-15T11:22:48;99990.31;;;-16.43;79.38
63700;BME280;49845;47.130;142.766;2024-01-15T11:25:19;99990.94;;;-16.45;79.37
63700;BME280;49845;47.130;142.766;2024-01-15T11:27:52;100007.16;;;-16.50;79.39
63700;BME280;49845;47.130;142.766;2024-01-15T11:30:25;100000.63;;;-16.59;79.38
63700;BME280;49845;47.130;142.766;2024-01-15T11:32:56;100006.66;;;-16.57;79.46
63700;BME280;49845;47.130;142.766;2024-01-15T11:35:49;100011.09;;;-16.63;79.69
63700;BME280;49845;47.130;142.766;2024-01-15T11:38:29;100007.06;;;-16.71;79.48
63700;BME280;49845;47.130;142.766;2024-01-15T11:40:59;100021.47;;;-16.68;80.00
63700;BME280;49845;47.130;142.766;2024-01-15T11:43:32;100013.31;;;-16.76;79.86
63700;BME280;49845;47.130;142.766;2024-01-15T11:46:02;100012.19;;;-16.80;80.20
63700;BME280;49845;47.130;142.766;2024-01-15T11:48:42;100019.31;;;-16.84;80.48
63700;BME280;49845;47.130;142.766;2024-01-15T11:51:15;100024.81;;;-16.78;80.95
63700;BME280;49845;47.130;142.766;2024-01-15T11:53:49;100016.06;;;-16.73;80.65
63700;BME280;49845;47.130;142.766;2024-01-15T11:56:23;100018.81;;;-16.70;80.17
63700;BME280;49845;47.130;142.766;2024-01-15T11:58:56;100017.59;;;-16.65;80.08
63700;BME280;49845;47.130;142.766;2024-01-15T12:01:43;100016.72;;;-16.65;79.54
63700;BME280;49845;47.130;142.766;2024-01-15T12:04:14;100013.59;;;-16.63;79.45
63700;BME280;49845;47.130;142.766;2024-01-15T12:06:48;100026.97;;;-16.62;78.82
63700;BME280;49845;47.130;142.766;2024-01-15T12:09:19;100024.13;;;-16.67;78.77
63700;BME280;49845;47.130;142.766;2024-01-15T12:11:54;100023.31;;;-16.76;78.58
63700;BME280;49845;47.130;142.766;2024-01-15T12:14:30;100027.00;;;-16.91;78.38
63700;BME280;49845;47.130;142.766;2024-01-15T12:17:03;100026.03;;;-16.83;79.01
63700;BME280;49845;47.130;142.766;2024-01-15T12:19:33;100025.69;;;-16.78;79.05
63700;BME280;49845;47.130;142.766;2024-01-15T12:22:04;100030.34;;;-16.72;78.86
63700;BME280;49845;47.130;142.766;2024-01-15T12:24:35;100041.09;;;-16.63;78.52
63700;BME280;49845;47.130;142.766;2024-01-15T12:27:05;100034.38;;;-16.64;78.50
63700;BME280;49845;47.130;142.766;2024-01-15T12:29:39;100034.63;;;-16.61;78.38
63700;BME280;49845;47.130;142.766;2024-01-15T12:32:11;100045.84;;;-16.66;78.32
63700;BME280;49845;47.130;142.766;2024-01-15T12:34:43;100045.84;;;-16.66;78.38
63700;BME280;49845;47.130;142.766;2024-01-15T12:37:13;100042.34;;;-16.68;78.51
63700;BME280;49845;47.130;142.766;2024-01-15T12:39:43;100049.56;;;-16.71;78.18
63700;BME280;49845;47.130;142.766;2024-01-15T12:42:15;99872.66;;;-17.81;78.10
63700;BME280;49845;47.130;142.766;2024-01-15T12:44:47;100053.06;;;-16.79;78.46
63700;BME280;49845;47.130;142.766;2024-01-15T12:47:17;100055.16;;;-16.84;78.27
63700;BME280;49845;47.130;142.766;2024-01-15T12:49:51;100060.00;;;-16.85;78.53